sensor_id;sensor_type;location;lat;lon;timestamp;temperature;humidity
39099;DHT22;24844;52.380;7.018;2024-01-06T00:01:22;5.50;99.90
39099;DHT22;24844;52.380;7.018;2024-01-06T00:03:47;5.40;99.90
39099;DHT22;24844;52.380;7.018;2024-01-06T00:06:13;5.40;99.90
39099;DHT22;24844;52.380;7.018;2024-01-06T00:08:39;5.40;99.90
39099;DHT22;24844;52.380;7.018;2024-01-06T00:11:05;5.50;99.90
39099;DHT22;24844;52.380;7.018;2024-01-06T00:13:30;5.50;99.90
39099;DHT22;24844;52.380;7.018;2024-01-06T00:15:56;5.60;99.90
39099;DHT22;24844;52.380;7.018;2024-01-06T00:18:22;5.40;99.90
39099;DHT22;24844;52.380;7.018;2024-01-06T00:20:48;5.30;99.90
39099;DHT22;24844;52.380;7.018;2024-01-06T00:23:14;5.00;99.90
39099;DHT22;24844;52.380;7.018;2024-01-06T00:25:39;5.20;99.90
39099;DHT22;24844;52.380;7.018;2024-01-06T00:28:05;5.40;99.90
39099;DHT22;24844;52.380;7.018;2024-01-06T00:30:31;5.10;99.90
39099;DHT22;24844;52.380;7.018;2024-01-06T00:32:58;5.20;99.90
39099;DHT22;24844;52.380;7.018;2024-01-06T00:35:24;5.10;99.90
39099;DHT22;24844;52.380;7.018;2024-01-06T00:37:50;5.00;99.90
39099;DHT22;24844;52.380;7.018;2024-01-06T00:40:15;4.90;99.90
39099;DHT22;24844;52.380;7.018;2024-01-06T00:42:41;4.80;99.90
39099;DHT22;24844;52.380;7.018;2024-01-06T00:45:10;5.20;99.90
39099;DHT22;24844;52.380;7.018;2024-01-06T00:47:35;4.90;99.90
39099;DHT22;24844;52.380;7.018;2024-01-06T00:50:03;4.80;99.90
39099;DHT22;24844;52.380;7.018;2024-01-06T00:52:29;4.90;99.90
39099;DHT22;24844;52.380;7.018;2024-01-06T00:54:54;5.00;99.90
39099;DHT22;24844;52.380;7.018;2024-01-06T00:57:20;4.50;99.90
39099;DHT22;24844;52.380;7.018;2024-01-06T00:59:49;4.80;99.90
39099;DHT22;24844;52.380;7.018;2024-01-06T01:02:15;4.40;99.90
39099;DHT22;24844;52.380;7.018;2024-01-06T01:04:42;4.60;99.90
39099;DHT22;24844;52.380;7.018;2024-01-06T01:07:08;4.70;99.90
39099;DHT22;24844;52.380;7.018;2024-01-06T01:09:34;4.60;99.90
39099;DHT22;24844;52.380;7.018;2024-01-06T01:12:00;4.60;99.90
39099;DHT22;24844;52.380;7.018;2024-01-06T01:14:26;4.50;99.90
39099;DHT22;24844;52.380;7.018;2024-01-06T01:16:51;4.80;99.90
39099;DHT22;24844;52.380;7.018;2024-01-06T01:19:17;4.50;99.90
39099;DHT22;24844;52.380;7.018;2024-01-06T01:21:43;4.80;99.90
39099;DHT22;24844;52.380;7.018;2024-01-06T01:24:08;4.70;99.90
39099;DHT22;24844;52.380;7.018;2024-01-06T01:26:34;4.60;99.90
39099;DHT22;24844;52.380;7.018;2024-01-06T01:29:00;4.50;99.90
39099;DHT22;24844;52.380;7.018;2024-01-06T01:31:25;4.30;99.90
39099;DHT22;24844;52.380;7.018;2024-01-06T01:33:54;4.30;99.90
39099;DHT22;24844;52.380;7.018;2024-01-06T01:36:19;4.30;99.90
39099;DHT22;24844;52.380;7.018;2024-01-06T01:38:45;4.50;99.90
39099;DHT22;24844;52.380;7.018;2024-01-06T01:41:11;4.20;99.90
39099;DHT22;24844;52.380;7.018;2024-01-06T01:43:37;4.30;99.90
39099;DHT22;24844;52.380;7.018;2024-01-06T01:46:03;4.20;99.90
39099;DHT22;24844;52.380;7.018;2024-01-06T01:48:29;4.10;99.90
39099;DHT22;24844;52.380;7.018;2024-01-06T01:50:56;4.10;99.90
39099;DHT22;24844;52.380;7.018;2024-01-06T01:53:23;4.40;99.90
39099;DHT22;24844;52.380;7.018;2024-01-06T01:55:50;4.30;99.90
39099;DHT22;24844;52.380;7.018;2024-01-06T01:58:16;4.10;99.90
39099;DHT22;24844;52.380;7.018;2024-01-06T02:00:42;4.20;99.90
39099;DHT22;24844;52.380;7.018;2024-01-06T02:03:09;4.30;99.90
39099;DHT22;24844;52.380;7.018;2024-01-06T02:05:40;4.20;99.90
39099;DHT22;24844;52.380;7.018;2024-01-06T02:08:06;4.40;99.90
39099;DHT22;24844;52.380;7.018;2024-01-06T02:10:32;4.30;99.90
39099;DHT22;24844;52.380;7.018;2024-01-06T02:13:06;4.30;99.90
39099;DHT22;24844;52.380;7.018;2024-01-06T02:15:32;4.10;99.90
39099;DHT22;24844;52.380;7.018;2024-01-06T02:17:57;4.50;99.90
39099;DHT22;24844;52.380;7.018;2024-01-06T02:20:23;4.20;99.90
39099;DHT22;24844;52.380;7.018;2024-01-06T02:22:49;4.20;99.90
39099;DHT22;24844;52.380;7.018;2024-01-06T02:25:15;4.10;99.90
39099;DHT22;24844;52.380;7.018;2024-01-06T02:27:41;4.10;99.90
39099;DHT22;24844;52.380;7.018;2024-01-06T02:30:09;4.20;99.90
39099;DHT22;24844;52.380;7.018;2024-01-06T02:32:35;3.90;99.90
39099;DHT22;24844;52.380;7.018;2024-01-06T02:35:00;3.70;99.90
39099;DHT22;24844;52.380;7.018;2024-01-06T02:37:26;3.90;99.90
39099;DHT22;24844;52.380;7.018;2024-01-06T02:39:52;4.00;99.90
39099;DHT22;24844;52.380;7.018;2024-01-06T02:42:18;3.90;99.90
39099;DHT22;24844;52.380;7.018;2024-01-06T02:44:44;4.00;99.90
39099;DHT22;24844;52.380;7.018;2024-01-06T02:47:11;3.90;99.90
39099;DHT22;24844;52.380;7.018;2024-01-06T02:49:37;3.90;99.90
39099;DHT22;24844;52.380;7.018;2024-01-06T02:52:02;3.50;99.90
39099;DHT22;24844;52.380;7.018;2024-01-06T02:54:28;3.90;99.90
39099;DHT22;24844;52.380;7.018;2024-01-06T02:56:54;3.70;99.90
39099;DHT22;24844;52.380;7.018;2024-01-06T02:59:19;3.80;99.90
39099;DHT22;24844;52.380;7.018;2024-01-06T03:01:45;4.00;99.90
39099;DHT22;24844;52.380;7.018;2024-01-06T03:04:11;3.70;99.90
39099;DHT22;24844;52.380;7.018;2024-01-06T03:06:36;3.60;99.90
39099;DHT22;24844;52.380;7.018;2024-01-06T03:09:02;3.80;99.90
39099;DHT22;24844;52.380;7.018;2024-01-06T03:11:28;3.80;99.90
39099;DHT22;24844;52.380;7.018;2024-01-06T03:13:53;3.70;99.90
39099;DHT22;24844;52.380;7.018;2024-01-06T03:16:19;3.70;99.90
39099;DHT22;24844;52.380;7.018;2024-01-06T03:18:45;3.60;99.90
39099;DHT22;24844;52.380;7.018;2024-01-06T03:21:21;3.80;99.90
39099;DHT22;24844;52.380;7.018;2024-01-06T03:23:48;3.60;99.90
39099;DHT22;24844;52.380;7.018;2024-01-06T03:26:14;3.90;99.90
39099;DHT22;24844;52.380;7.018;2024-01-06T03:28:39;3.90;99.90
39099;DHT22;24844;52.380;7.018;2024-01-06T03:31:05;3.80;99.90
39099;DHT22;24844;52.380;7.018;2024-01-06T03:33:31;3.60;99.90
39099;DHT22;24844;52.380;7.018;2024-01-06T03:35:56;3.70;99.90
39099;DHT22;24844;52.380;7.018;2024-01-06T03:38:22;3.80;99.90
39099;DHT22;24844;52.380;7.018;2024-01-06T03:40:48;3.80;99.90
39099;DHT22;24844;52.380;7.018;2024-01-06T03:43:13;3.70;99.90
39099;DHT22;24844;52.380;7.018;2024-01-06T03:45:39;3.60;99.90
39099;DHT22;24844;52.380;7.018;2024-01-06T03:48:05;3.80;99.90
39099;DHT22;24844;52.380;7.018;2024-01-06T03:50:31;3.70;99.90
39099;DHT22;24844;52.380;7.018;2024-01-06T03:52:59;3.60;99.90
39099;DHT22;24844;52.380;7.018;2024-01-06T03:55:24;3.40;99.90
39099;DHT22;24844;52.380;7.018;2024-01-06T03:57:50;3.60;99.90
39099;DHT22;24844;52.380;7.018;2024-01-06T04:00:16;3.40;99.90
39099;DHT22;24844;52.380;7.018;2024-01-06T04:02:42;3.60;99.90
39099;DHT22;24844;52.380;7.018;2024-01-06T04:05:09;3.50;99.90
39099;DHT22;24844;52.380;7.018;2024-01-06T04:07:35;3.40;99.90
39099;DHT22;24844;52.380;7.018;2024-01-06T04:10:03;3.40;99.90
39099;DHT22;24844;52.380;7.018;2024-01-06T04:12:29;3.30;99.90
39099;DHT22;24844;52.380;7.018;2024-01-06T04:14:55;3.40;99.90
39099;DHT22;24844;52.380;7.018;2024-01-06T04:17:20;3.60;99.90
39099;DHT22;24844;52.380;7.018;2024-01-06T04:19:46;3.40;99.90
39099;DHT22;24844;52.380;7.018;2024-01-06T04:22:12;3.40;99.90
39099;DHT22;24844;52.380;7.018;2024-01-06T04:24:37;3.40;99.90
39099;DHT22;24844;52.380;7.018;2024-01-06T04:27:04;3.40;99.90
39099;DHT22;24844;52.380;7.018;2024-01-06T04:29:33;3.50;99.90
39099;DHT22;24844;52.380;7.018;2024-01-06T04:31:58;3.30;99.90
39099;DHT22;24844;52.380;7.018;2024-01-06T04:34:24;3.40;99.90
39099;DHT22;24844;52.380;7.018;2024-01-06T04:36:50;3.40;99.90
39099;DHT22;24844;52.380;7.018;2024-01-06T04:39:15;3.50;99.90
39099;DHT22;24844;52.380;7.018;2024-01-06T04:41:41;3.40;99.90
39099;DHT22;24844;52.380;7.018;2024-01-06T04:44:07;3.70;99.90
39099;DHT22;24844;52.380;7.018;2024-01-06T04:46:33;3.50;99.90
39099;DHT22;24844;52.380;7.018;2024-01-06T04:48:58;3.80;99.90
39099;DHT22;24844;52.380;7.018;2024-01-06T04:51:24;3.30;99.90
39099;DHT22;24844;52.380;7.018;2024-01-06T04:53:50;3.30;99.90
39099;DHT22;24844;52.380;7.018;2024-01-06T04:56:15;3.60;99.90
39099;DHT22;24844;52.380;7.018;2024-01-06T04:58:41;3.60;99.90
39099;DHT22;24844;52.380;7.018;2024-01-06T05:01:07;3.80;99.90
39099;DHT22;24844;52.380;7.018;2024-01-06T05:03:33;3.50;99.90
39099;DHT22;24844;52.380;7.018;2024-01-06T05:05:59;3.20;99.90
39099;DHT22;24844;52.380;7.018;2024-01-06T05:08:24;3.30;99.90
39099;DHT22;24844;52.380;7.018;2024-01-06T05:10:52;3.20;99.90
39099;DHT22;24844;52.380;7.018;2024-01-06T05:13:18;3.40;99.90
39099;DHT22;24844;52.380;7.018;2024-01-06T05:15:44;3.40;99.90
39099;DHT22;24844;52.380;7.018;2024-01-06T05:18:12;3.30;99.90
39099;DHT22;24844;52.380;7.018;2024-01-06T05:20:38;3.60;99.90
39099;DHT22;24844;52.380;7.018;2024-01-06T05:23:06;3.30;99.90
39099;DHT22;24844;52.380;7.018;2024-01-06T05:25:32;3.30;99.90
39099;DHT22;24844;52.380;7.018;2024-01-06T05:27:57;3.20;99.90
39099;DHT22;24844;52.380;7.018;2024-01-06T05:30:23;3.20;99.90
39099;DHT22;24844;52.380;7.018;2024-01-06T05:32:49;3.10;99.90
39099;DHT22;24844;52.380;7.018;2024-01-06T05:35:17;3.50;99.90
39099;DHT22;24844;52.380;7.018;2024-01-06T05:37:42;3.40;99.90
39099;DHT22;24844;52.380;7.018;2024-01-06T05:40:08;3.20;99.90
39099;DHT22;24844;52.380;7.018;2024-01-06T05:42:34;3.30;99.90
39099;DHT22;24844;52.380;7.018;2024-01-06T05:45:00;3.40;99.90
39099;DHT22;24844;52.380;7.018;2024-01-06T05:47:26;3.30;99.90
39099;DHT22;24844;52.380;7.018;2024-01-06T05:49:51;3.20;99.90
39099;DHT22;24844;52.380;7.018;2024-01-06T05:52:17;3.20;99.90
39099;DHT22;24844;52.380;7.018;2024-01-06T05:54:43;3.20;99.90
39099;DHT22;24844;52.380;7.018;2024-01-06T05:57:12;3.10;99.90
39099;DHT22;24844;52.380;7.018;2024-01-06T05:59:37;3.10;99.90
39099;DHT22;24844;52.380;7.018;2024-01-06T06:02:03;3.00;99.90
39099;DHT22;24844;52.380;7.018;2024-01-06T06:04:29;3.30;99.90
39099;DHT22;24844;52.380;7.018;2024-01-06T06:06:54;3.40;99.90
39099;DHT22;24844;52.380;7.018;2024-01-06T06:09:20;3.40;99.90
39099;DHT22;24844;52.380;7.018;2024-01-06T06:11:47;3.80;99.90
39099;DHT22;24844;52.380;7.018;2024-01-06T06:14:15;3.50;99.90
39099;DHT22;24844;52.380;7.018;2024-01-06T06:16:40;3.30;99.90
39099;DHT22;24844;52.380;7.018;2024-01-06T06:19:06;3.30;99.90
39099;DHT22;24844;52.380;7.018;2024-01-06T06:21:33;3.20;99.90
39099;DHT22;24844;52.380;7.018;2024-01-06T06:23:59;3.30;99.90
39099;DHT22;24844;52.380;7.018;2024-01-06T06:26:25;3.30;99.90
39099;DHT22;24844;52.380;7.018;2024-01-06T06:28:52;3.10;99.90
39099;DHT22;24844;52.380;7.018;2024-01-06T06:31:18;3.30;99.90
39099;DHT22;24844;52.380;7.018;2024-01-06T06:33:43;3.30;99.90
39099;DHT22;24844;52.380;7.018;2024-01-06T06:36:10;3.10;99.90
39099;DHT22;24844;52.380;7.018;2024-01-06T06:38:36;3.00;99.90
39099;DHT22;24844;52.380;7.018;2024-01-06T06:41:01;3.20;99.90
39099;DHT22;24844;52.380;7.018;2024-01-06T06:43:27;3.20;99.90
39099;DHT22;24844;52.380;7.018;2024-01-06T06:45:53;3.10;99.90
39099;DHT22;24844;52.380;7.018;2024-01-06T06:48:21;3.60;99.90
39099;DHT22;24844;52.380;7.018;2024-01-06T06:50:46;3.40;99.90
39099;DHT22;24844;52.380;7.018;2024-01-06T06:53:12;3.30;99.90
39099;DHT22;24844;52.380;7.018;2024-01-06T06:55:38;3.00;99.90
39099;DHT22;24844;52.380;7.018;2024-01-06T06:58:04;3.00;99.90
39099;DHT22;24844;52.380;7.018;2024-01-06T07:00:31;3.00;99.90
39099;DHT22;24844;52.380;7.018;2024-01-06T07:02:56;3.20;99.90
39099;DHT22;24844;52.380;7.018;2024-01-06T07:05:23;3.10;99.90
39099;DHT22;24844;52.380;7.018;2024-01-06T07:07:48;2.80;99.90
39099;DHT22;24844;52.380;7.018;2024-01-06T07:10:14;2.70;99.90
39099;DHT22;24844;52.380;7.018;2024-01-06T07:12:40;2.70;99.90
39099;DHT22;24844;52.380;7.018;2024-01-06T07:15:06;2.80;99.90
39099;DHT22;24844;52.380;7.018;2024-01-06T07:17:31;2.80;99.90
39099;DHT22;24844;52.380;7.018;2024-01-06T07:19:57;2.70;99.90
39099;DHT22;24844;52.380;7.018;2024-01-06T07:22:23;2.90;99.90
39099;DHT22;24844;52.380;7.018;2024-01-06T07:24:48;2.70;99.90
39099;DHT22;24844;52.380;7.018;2024-01-06T07:27:14;2.50;99.90
39099;DHT22;24844;52.380;7.018;2024-01-06T07:29:40;2.50;99.90
39099;DHT22;24844;52.380;7.018;2024-01-06T07:32:06;2.70;99.90
39099;DHT22;24844;52.380;7.018;2024-01-06T07:34:32;2.60;99.90
39099;DHT22;24844;52.380;7.018;2024-01-06T07:36:57;2.80;99.90
39099;DHT22;24844;52.380;7.018;2024-01-06T07:39:26;2.90;99.90
39099;DHT22;24844;52.380;7.018;2024-01-06T07:41:52;2.80;99.90
39099;DHT22;24844;52.380;7.018;2024-01-06T07:44:19;2.70;99.90
39099;DHT22;24844;52.380;7.018;2024-01-06T07:46:50;2.80;99.90
39099;DHT22;24844;52.380;7.018;2024-01-06T07:49:16;3.00;99.90
39099;DHT22;24844;52.380;7.018;2024-01-06T07:51:42;3.10;99.90
39099;DHT22;24844;52.380;7.018;2024-01-06T07:54:09;3.00;99.90
39099;DHT22;24844;52.380;7.018;2024-01-06T08:03:57;2.50;99.90
39099;DHT22;24844;52.380;7.018;2024-01-06T08:09:03;2.60;99.90
39099;DHT22;24844;52.380;7.018;2024-01-06T08:11:29;2.70;99.90
39099;DHT22;24844;52.380;7.018;2024-01-06T08:16:21;2.80;99.90
39099;DHT22;24844;52.380;7.018;2024-01-06T08:18:47;2.90;99.90
39099;DHT22;24844;52.380;7.018;2024-01-06T08:21:12;3.00;99.90
39099;DHT22;24844;52.380;7.018;2024-01-06T08:26:05;2.70;99.90
39099;DHT22;24844;52.380;7.018;2024-01-06T08:28:31;2.50;99.90
39099;DHT22;24844;52.380;7.018;2024-01-06T08:30:57;2.50;99.90
39099;DHT22;24844;52.380;7.018;2024-01-06T08:33:22;2.70;99.90
39099;DHT22;24844;52.380;7.018;2024-01-06T08:35:48;3.10;99.90
39099;DHT22;24844;52.380;7.018;2024-01-06T08:38:14;2.80;99.90
39099;DHT22;24844;52.380;7.018;2024-01-06T08:40:40;3.20;99.90
39099;DHT22;24844;52.380;7.018;2024-01-06T08:43:05;3.00;99.90
39099;DHT22;24844;52.380;7.018;2024-01-06T08:45:31;2.90;99.90
39099;DHT22;24844;52.380;7.018;2024-01-06T08:50:23;2.70;99.90
39099;DHT22;24844;52.380;7.018;2024-01-06T08:52:48;2.80;99.90
39099;DHT22;24844;52.380;7.018;2024-01-06T08:57:41;2.60;99.90
39099;DHT22;24844;52.380;7.018;2024-01-06T09:02:35;2.60;99.90
39099;DHT22;24844;52.380;7.018;2024-01-06T09:05:01;2.80;99.90
39099;DHT22;24844;52.380;7.018;2024-01-06T09:12:19;2.60;99.90
39099;DHT22;24844;52.380;7.018;2024-01-06T09:17:13;2.40;99.90
39099;DHT22;24844;52.380;7.018;2024-01-06T09:22:05;2.50;99.90
39099;DHT22;24844;52.380;7.018;2024-01-06T09:24:31;2.70;99.90
39099;DHT22;24844;52.380;7.018;2024-01-06T09:29:23;2.60;99.90
39099;DHT22;24844;52.380;7.018;2024-01-06T09:31:48;2.90;99.90
39099;DHT22;24844;52.380;7.018;2024-01-06T09:36:40;2.80;99.90
39099;DHT22;24844;52.380;7.018;2024-01-06T09:39:05;2.70;99.90
39099;DHT22;24844;52.380;7.018;2024-01-06T09:41:32;2.70;99.90
39099;DHT22;24844;52.380;7.018;2024-01-06T09:43:57;2.80;99.90
39099;DHT22;24844;52.380;7.018;2024-01-06T09:46:27;2.90;99.90
39099;DHT22;24844;52.380;7.018;2024-01-06T09:48:53;2.90;99.90
39099;DHT22;24844;52.380;7.018;2024-01-06T09:54:10;2.90;99.90
39099;DHT22;24844;52.380;7.018;2024-01-06T09:56:39;3.00;99.90
39099;DHT22;24844;52.380;7.018;2024-01-06T09:59:05;2.80;99.90
39099;DHT22;24844;52.380;7.018;2024-01-06T10:01:30;3.00;99.90
39099;DHT22;24844;52.380;7.018;2024-01-06T10:03:56;2.90;99.90
39099;DHT22;24844;52.380;7.018;2024-01-06T10:06:21;3.10;99.90
39099;DHT22;24844;52.380;7.018;2024-01-06T10:08:51;3.20;99.90
39099;DHT22;24844;52.380;7.018;2024-01-06T10:11:18;3.10;99.90
39099;DHT22;24844;52.380;7.018;2024-01-06T10:13:44;3.40;99.90
39099;DHT22;24844;52.380;7.018;2024-01-06T10:18:36;3.00;99.90
39099;DHT22;24844;52.380;7.018;2024-01-06T10:25:58;2.90;99.90
39099;DHT22;24844;52.380;7.018;2024-01-06T10:28:24;3.50;99.90
39099;DHT22;24844;52.380;7.018;2024-01-06T10:30:52;3.70;99.90
39099;DHT22;24844;52.380;7.018;2024-01-06T10:35:45;3.40;99.90
39099;DHT22;24844;52.380;7.018;2024-01-06T10:38:11;3.40;99.90
39099;DHT22;24844;52.380;7.018;2024-01-06T10:40:37;3.40;99.90
39099;DHT22;24844;52.380;7.018;2024-01-06T10:43:03;3.40;99.90
39099;DHT22;24844;52.380;7.018;2024-01-06T10:45:29;3.50;99.90
39099;DHT22;24844;52.380;7.018;2024-01-06T10:47:57;3.40;99.90
39099;DHT22;24844;52.380;7.018;2024-01-06T10:50:26;3.20;99.90
39099;DHT22;24844;52.380;7.018;2024-01-06T10:55:20;2.90;99.90
39099;DHT22;24844;52.380;7.018;2024-01-06T10:57:47;3.20;99.90
39099;DHT22;24844;52.380;7.018;2024-01-06T11:02:41;3.00;99.90
39099;DHT22;24844;52.380;7.018;2024-01-06T11:05:07;3.10;99.90
39099;DHT22;24844;52.380;7.018;2024-01-06T11:07:35;3.30;99.90
39099;DHT22;24844;52.380;7.018;2024-01-06T11:10:09;3.20;99.90
39099;DHT22;24844;52.380;7.018;2024-01-06T11:12:36;2.90;99.90
39099;DHT22;24844;52.380;7.018;2024-01-06T11:17:52;2.80;99.90
39099;DHT22;24844;52.380;7.018;2024-01-06T11:22:46;2.90;99.90
39099;DHT22;24844;52.380;7.018;2024-01-06T11:25:15;3.20;99.90
39099;DHT22;24844;52.380;7.018;2024-01-06T11:27:45;3.20;99.90
39099;DHT22;24844;52.380;7.018;2024-01-06T11:32:47;3.30;99.90
39099;DHT22;24844;52.380;7.018;2024-01-06T11:35:16;3.40;99.90
39099;DHT22;24844;52.380;7.018;2024-01-06T11:42:47;3.80;99.90
39099;DHT22;24844;52.380;7.018;2024-01-06T11:47:40;3.50;99.90
39099;DHT22;24844;52.380;7.018;2024-01-06T11:50:12;3.40;99.90
39099;DHT22;24844;52.380;7.018;2024-01-06T11:57:34;3.40;99.90
39099;DHT22;24844;52.380;7.018;2024-01-06T12:00:00;3.10;99.90
39099;DHT22;24844;52.380;7.018;2024-01-06T12:04:53;2.80;99.90
39099;DHT22;24844;52.380;7.018;2024-01-06T12:07:20;2.90;99.90
39099;DHT22;24844;52.380;7.018;2024-01-06T12:17:11;3.10;99.90
39099;DHT22;24844;52.380;7.018;2024-01-06T12:22:04;3.10;99.90
39099;DHT22;24844;52.380;7.018;2024-01-06T12:26:58;2.80;99.90
39099;DHT22;24844;52.380;7.018;2024-01-06T12:34:21;2.80;99.90
39099;DHT22;24844;52.380;7.018;2024-01-06T12:36:47;2.90;99.90
39099;DHT22;24844;52.380;7.018;2024-01-06T12:39:13;2.90;99.90
39099;DHT22;24844;52.380;7.018;2024-01-06T12:41:40;2.70;99.90
39099;DHT22;24844;52.380;7.018;2024-01-06T12:44:06;2.70;99.90
39099;DHT22;24844;52.380;7.018;2024-01-06T12:48:59;2.60;99.90
39099;DHT22;24844;52.380;7.018;2024-01-06T12:51:25;2.80;99.90
39099;DHT22;24844;52.380;7.018;2024-01-06T12:53:50;2.90;99.90
39099;DHT22;24844;52.380;7.018;2024-01-06T13:03:35;2.60;99.90
39099;DHT22;24844;52.380;7.018;2024-01-06T13:10:55;2.70;99.90
39099;DHT22;24844;52.380;7.018;2024-01-06T13:13:21;2.90;99.90
39099;DHT22;24844;52.380;7.018;2024-01-06T13:28:01;2.80;99.90
39099;DHT22;24844;52.380;7.018;2024-01-06T13:47:39;2.50;99.90
39099;DHT22;24844;52.380;7.018;2024-01-06T14:07:13;2.30;99.90
39099;DHT22;24844;52.380;7.018;2024-01-06T14:16:58;2.30;99.90
39099;DHT22;24844;52.380;7.018;2024-01-06T14:21:50;2.60;99.90
39099;DHT22;24844;52.380;7.018;2024-01-06T14:24:16;2.60;99.90
39099;DHT22;24844;52.380;7.018;2024-01-06T14:26:49;3.00;99.90
39099;DHT22;24844;52.380;7.018;2024-01-06T14:36:35;2.30;99.90
39099;DHT22;24844;52.380;7.018;2024-01-06T14:43:55;2.50;99.90
39099;DHT22;24844;52.380;7.018;2024-01-06T14:56:06;2.60;99.90
39099;DHT22;24844;52.380;7.018;2024-01-06T14:58:31;2.90;99.90
39099;DHT22;24844;52.380;7.018;2024-01-06T15:08:17;2.70;99.90
39099;DHT22;24844;52.380;7.018;2024-01-06T15:15:36;2.70;99.90
39099;DHT22;24844;52.380;7.018;2024-01-06T15:22:55;2.60;99.90
39099;DHT22;24844;52.380;7.018;2024-01-06T15:40:02;2.90;99.90
39099;DHT22;24844;52.380;7.018;2024-01-06T15:44:57;2.60;99.90
39099;DHT22;24844;52.380;7.018;2024-01-06T15:49:49;3.00;99.90
39099;DHT22;24844;52.380;7.018;2024-01-06T16:02:04;2.70;99.90
39099;DHT22;24844;52.380;7.018;2024-01-06T16:06:56;2.60;99.90
39099;DHT22;24844;52.380;7.018;2024-01-06T16:19:16;2.90;99.90
39099;DHT22;24844;52.380;7.018;2024-01-06T16:21:42;3.10;99.90
39099;DHT22;24844;52.380;7.018;2024-01-06T16:29:01;3.90;99.90
39099;DHT22;24844;52.380;7.018;2024-01-06T16:41:12;3.70;99.90
39099;DHT22;24844;52.380;7.018;2024-01-06T16:53:25;4.40;99.90
39099;DHT22;24844;52.380;7.018;2024-01-06T16:55:51;4.80;99.90
39099;DHT22;24844;52.380;7.018;2024-01-06T16:58:16;5.40;99.90
39099;DHT22;24844;52.380;7.018;2024-01-06T17:05:35;5.00;99.90
39099;DHT22;24844;52.380;7.018;2024-01-06T17:08:00;5.00;99.90
39099;DHT22;24844;52.380;7.018;2024-01-06T17:10:26;5.20;99.90
39099;DHT22;24844;52.380;7.018;2024-01-06T17:12:51;5.30;99.90
39099;DHT22;24844;52.380;7.018;2024-01-06T17:15:19;5.40;99.90
39099;DHT22;24844;52.380;7.018;2024-01-06T17:20:16;4.40;99.90
39099;DHT22;24844;52.380;7.018;2024-01-06T17:22:42;4.10;99.90
39099;DHT22;24844;52.380;7.018;2024-01-06T17:25:09;3.60;99.90
39099;DHT22;24844;52.380;7.018;2024-01-06T17:27:37;3.30;99.90
39099;DHT22;24844;52.380;7.018;2024-01-06T17:32:29;2.90;99.90
39099;DHT22;24844;52.380;7.018;2024-01-06T17:34:54;3.10;99.90
39099;DHT22;24844;52.380;7.018;2024-01-06T17:37:20;2.80;99.90
39099;DHT22;24844;52.380;7.018;2024-01-06T17:42:13;2.70;99.90
39099;DHT22;24844;52.380;7.018;2024-01-06T17:44:38;2.50;99.90
39099;DHT22;24844;52.380;7.018;2024-01-06T17:54:29;2.30;99.90
39099;DHT22;24844;52.380;7.018;2024-01-06T18:04:15;2.30;99.90
39099;DHT22;24844;52.380;7.018;2024-01-06T18:09:08;2.10;99.90
39099;DHT22;24844;52.380;7.018;2024-01-06T18:23:45;2.60;99.90
39099;DHT22;24844;52.380;7.018;2024-01-06T18:26:12;2.40;99.90
39099;DHT22;24844;52.380;7.018;2024-01-06T18:28:38;2.40;99.90
39099;DHT22;24844;52.380;7.018;2024-01-06T18:31:04;2.50;99.90
39099;DHT22;24844;52.380;7.018;2024-01-06T18:35:57;2.60;99.90
39099;DHT22;24844;52.380;7.018;2024-01-06T18:38:22;2.50;99.90
39099;DHT22;24844;52.380;7.018;2024-01-06T18:40:48;2.60;99.90
39099;DHT22;24844;52.380;7.018;2024-01-06T18:43:14;2.80;99.90
39099;DHT22;24844;52.380;7.018;2024-01-06T18:45:39;2.60;99.90
39099;DHT22;24844;52.380;7.018;2024-01-06T18:48:05;2.60;99.90
39099;DHT22;24844;52.380;7.018;2024-01-06T18:50:31;2.70;99.90
39099;DHT22;24844;52.380;7.018;2024-01-06T18:52:56;2.70;99.90
39099;DHT22;24844;52.380;7.018;2024-01-06T18:55:22;2.70;99.90
39099;DHT22;24844;52.380;7.018;2024-01-06T18:57:47;2.60;99.90
39099;DHT22;24844;52.380;7.018;2024-01-06T19:00:14;2.40;99.90
39099;DHT22;24844;52.380;7.018;2024-01-06T19:02:43;2.50;99.90
39099;DHT22;24844;52.380;7.018;2024-01-06T19:05:10;2.60;99.90
39099;DHT22;24844;52.380;7.018;2024-01-06T19:10:02;2.40;99.90
39099;DHT22;24844;52.380;7.018;2024-01-06T19:14:54;2.30;99.90
39099;DHT22;24844;52.380;7.018;2024-01-06T19:17:20;2.40;99.90
39099;DHT22;24844;52.380;7.018;2024-01-06T19:19:48;2.60;99.90
39099;DHT22;24844;52.380;7.018;2024-01-06T19:24:40;2.60;99.90
39099;DHT22;24844;52.380;7.018;2024-01-06T19:27:06;2.60;99.90
39099;DHT22;24844;52.380;7.018;2024-01-06T19:29:32;2.80;99.90
39099;DHT22;24844;52.380;7.018;2024-01-06T19:31:58;2.50;99.90
39099;DHT22;24844;52.380;7.018;2024-01-06T19:34:23;2.70;99.90
39099;DHT22;24844;52.380;7.018;2024-01-06T19:36:49;2.60;99.90
39099;DHT22;24844;52.380;7.018;2024-01-06T19:39:14;2.70;99.90
39099;DHT22;24844;52.380;7.018;2024-01-06T19:41:40;2.50;99.90
39099;DHT22;24844;52.380;7.018;2024-01-06T19:44:06;2.50;99.90
39099;DHT22;24844;52.380;7.018;2024-01-06T19:46:31;2.50;99.90
39099;DHT22;24844;52.380;7.018;2024-01-06T19:48:57;2.50;99.90
39099;DHT22;24844;52.380;7.018;2024-01-06T19:51:23;2.30;99.90
39099;DHT22;24844;52.380;7.018;2024-01-06T19:53:49;2.60;99.90
39099;DHT22;24844;52.380;7.018;2024-01-06T19:56:15;2.60;99.90
39099;DHT22;24844;52.380;7.018;2024-01-06T19:58:41;2.80;99.90
39099;DHT22;24844;52.380;7.018;2024-01-06T20:01:07;2.70;99.90
39099;DHT22;24844;52.380;7.018;2024-01-06T20:06:04;2.40;99.90
39099;DHT22;24844;52.380;7.018;2024-01-06T20:08:30;2.50;99.90
39099;DHT22;24844;52.380;7.018;2024-01-06T20:10:58;2.20;99.90
39099;DHT22;24844;52.380;7.018;2024-01-06T20:13:29;2.60;99.90
39099;DHT22;24844;52.380;7.018;2024-01-06T20:15:55;2.40;99.90
39099;DHT22;24844;52.380;7.018;2024-01-06T20:20:48;2.30;99.90
39099;DHT22;24844;52.380;7.018;2024-01-06T20:23:14;2.60;99.90
39099;DHT22;24844;52.380;7.018;2024-01-06T20:25:39;2.60;99.90
39099;DHT22;24844;52.380;7.018;2024-01-06T20:28:08;2.40;99.90
39099;DHT22;24844;52.380;7.018;2024-01-06T20:30:33;2.30;99.90
39099;DHT22;24844;52.380;7.018;2024-01-06T20:35:25;2.20;99.90
39099;DHT22;24844;52.380;7.018;2024-01-06T20:37:51;2.70;99.90
39099;DHT22;24844;52.380;7.018;2024-01-06T20:40:18;2.40;99.90
39099;DHT22;24844;52.380;7.018;2024-01-06T20:42:44;2.70;99.90
39099;DHT22;24844;52.380;7.018;2024-01-06T20:45:10;2.30;99.90
39099;DHT22;24844;52.380;7.018;2024-01-06T20:47:36;2.70;99.90
39099;DHT22;24844;52.380;7.018;2024-01-06T20:52:28;2.20;99.90
39099;DHT22;24844;52.380;7.018;2024-01-06T20:54:55;2.60;99.90
39099;DHT22;24844;52.380;7.018;2024-01-06T20:57:20;2.50;99.90
39099;DHT22;24844;52.380;7.018;2024-01-06T20:59:46;2.50;99.90
39099;DHT22;24844;52.380;7.018;2024-01-06T21:02:12;2.90;99.90
39099;DHT22;24844;52.380;7.018;2024-01-06T21:04:39;2.60;99.90
39099;DHT22;24844;52.380;7.018;2024-01-06T21:07:04;2.40;99.90
39099;DHT22;24844;52.380;7.018;2024-01-06T21:09:30;2.70;99.90